createdAt,value
2022-08-22T00:01:34.220Z,13.65
2022-08-22T00:02:45.363Z,10.05
2022-08-22T00:04:13.364Z,9.02
2022-08-22T00:06:52.453Z,9.82
2022-08-22T00:09:33.188Z,6.85
2022-08-22T00:12:15.762Z,9.52
2022-08-22T00:14:52.262Z,11.43
2022-08-22T00:17:34.490Z,9.18
2022-08-22T00:20:11.193Z,8.80
2022-08-22T00:22:47.908Z,12.25
2022-08-22T00:25:41.940Z,12.07
2022-08-22T00:28:16.863Z,10.13
2022-08-22T00:30:53.025Z,12.25
2022-08-22T00:33:31.678Z,10.43
2022-08-22T00:36:16.374Z,17.02
2022-08-22T00:38:52.112Z,11.63
2022-08-22T00:41:35.186Z,9.70
2022-08-22T00:44:36.062Z,10.85
2022-08-22T00:47:31.495Z,10.02
2022-08-22T00:50:26.856Z,9.43
2022-08-22T00:53:08.263Z,15.13
2022-08-22T00:55:59.289Z,10.60
2022-08-22T00:58:46.686Z,9.75
2022-08-22T01:01:19.799Z,8.75
2022-08-22T01:04:21.105Z,9.45
2022-08-22T01:07:16.999Z,10.63
2022-08-22T01:09:58.749Z,11.25
2022-08-22T01:12:47.253Z,10.43
2022-08-22T01:15:21.960Z,9.02
2022-08-22T01:18:10.906Z,14.00
2022-08-22T01:21:30.151Z,9.68
2022-08-22T01:24:36.962Z,9.07
2022-08-22T01:28:11.629Z,11.77
2022-08-22T01:31:16.720Z,10.63
2022-08-22T01:34:26.092Z,8.68
2022-08-22T01:37:27.971Z,11.73
2022-08-22T01:40:29.844Z,13.13
2022-08-22T01:43:11.382Z,10.27
2022-08-22T01:46:03.465Z,8.65
2022-08-22T01:48:38.961Z,9.20
2022-08-22T01:51:19.159Z,12.32
2022-08-22T01:54:02.850Z,10.77
2022-08-22T01:56:36.469Z,10.18
2022-08-22T01:59:11.082Z,8.27
2022-08-22T02:01:58.197Z,13.20
2022-08-22T02:04:38.439Z,10.57
2022-08-22T02:07:14.364Z,7.70
2022-08-22T02:09:52.303Z,10.93
2022-08-22T02:12:32.720Z,8.10
2022-08-22T02:15:14.316Z,7.82
2022-08-22T02:18:01.115Z,11.80
2022-08-22T02:20:35.135Z,9.32
2022-08-22T02:23:20.836Z,11.02
2022-08-22T02:25:53.675Z,10.23
2022-08-22T02:28:34.235Z,9.38
2022-08-22T02:31:08.411Z,10.60
2022-08-22T02:33:54.595Z,8.95
2022-08-22T02:36:28.544Z,9.52
2022-08-22T02:39:06.409Z,7.38
2022-08-22T02:41:45.913Z,13.77
2022-08-22T02:44:20.990Z,10.40
2022-08-22T02:46:55.973Z,9.38
2022-08-22T02:49:43.748Z,9.63
2022-08-22T02:52:18.240Z,9.88
2022-08-22T02:54:57.872Z,13.80
2022-08-22T02:57:39.407Z,9.68
2022-08-22T03:00:30.749Z,9.38
2022-08-22T03:03:06.858Z,9.15
2022-08-22T03:05:49.432Z,7.93
2022-08-22T03:08:29.291Z,7.10
2022-08-22T03:11:11.127Z,8.38
2022-08-22T03:13:54.894Z,9.48
2022-08-22T03:16:30.520Z,8.57
2022-08-22T03:19:05.413Z,8.88
2022-08-22T03:21:38.132Z,7.57
2022-08-22T03:24:13.879Z,10.82
2022-08-22T03:26:51.729Z,8.80
2022-08-22T03:29:25.153Z,10.40
2022-08-22T03:32:14.165Z,11.20
2022-08-22T03:35:00.427Z,10.10
2022-08-22T03:37:39.417Z,9.98
2022-08-22T03:40:24.694Z,12.57
2022-08-22T03:43:25.069Z,9.02
2022-08-22T03:46:27.472Z,15.30
2022-08-22T03:49:40.840Z,9.98
2022-08-22T03:52:30.058Z,12.20
2022-08-22T03:55:17.493Z,9.60
2022-08-22T03:58:27.556Z,11.45
2022-08-22T04:01:40.817Z,10.18
2022-08-22T04:04:35.406Z,8.65
2022-08-22T04:07:28.320Z,9.40
2022-08-22T04:10:33.747Z,11.50
2022-08-22T04:13:32.792Z,8.75
2022-08-22T04:16:46.079Z,11.93
2022-08-22T04:19:54.219Z,11.98
2022-08-22T04:22:49.724Z,8.63
2022-08-22T04:25:24.207Z,8.75
2022-08-22T04:28:02.726Z,10.18
2022-08-22T04:30:36.990Z,10.35
2022-08-22T04:33:11.094Z,12.30
2022-08-22T04:35:46.483Z,12.40
2022-08-22T04:38:21.169Z,14.32
2022-08-22T04:40:55.553Z,10.05
2022-08-22T04:43:29.450Z,11.57
2022-08-22T04:46:05.505Z,10.20
2022-08-22T04:48:38.948Z,16.27
2022-08-22T04:51:17.588Z,8.77
2022-08-22T04:54:12.250Z,11.15
2022-08-22T04:56:49.947Z,10.65
2022-08-22T04:59:19.982Z,9.35
2022-08-22T05:01:54.960Z,11.55
2022-08-22T05:04:27.961Z,15.10
2022-08-22T05:07:07.061Z,16.00
2022-08-22T05:09:40.026Z,10.25
2022-08-22T05:12:14.566Z,11.95
2022-08-22T05:14:46.852Z,11.63
2022-08-22T05:17:19.611Z,9.50
2022-08-22T05:19:52.843Z,12.88
2022-08-22T05:22:32.032Z,11.82
2022-08-22T05:25:07.185Z,10.93
2022-08-22T05:27:40.561Z,12.85
2022-08-22T05:30:13.627Z,9.70
2022-08-22T05:32:50.178Z,13.80
2022-08-22T05:35:20.706Z,10.95
2022-08-22T05:37:55.060Z,11.70
2022-08-22T05:40:26.414Z,17.30
2022-08-22T05:42:57.112Z,11.70
2022-08-22T05:45:28.314Z,11.48
2022-08-22T05:48:05.305Z,11.40
2022-08-22T05:50:39.759Z,13.65
2022-08-22T05:53:14.482Z,12.65
2022-08-22T05:55:57.932Z,11.05
2022-08-22T05:58:45.660Z,11.88
2022-08-22T06:01:22.987Z,9.93
2022-08-22T06:04:02.364Z,13.32
2022-08-22T06:06:34.892Z,16.73
2022-08-22T06:09:07.232Z,12.50
2022-08-22T06:11:42.018Z,13.05
2022-08-22T06:14:30.712Z,12.43
2022-08-22T06:17:07.339Z,15.30
2022-08-22T06:19:40.863Z,11.98
2022-08-22T06:22:11.740Z,11.45
2022-08-22T06:24:45.960Z,12.80
2022-08-22T06:27:17.779Z,12.93
2022-08-22T06:29:53.200Z,15.30
2022-08-22T06:32:59.500Z,17.58
2022-08-22T06:35:19.419Z,13.77
2022-08-22T06:37:50.063Z,15.77
2022-08-22T06:40:19.964Z,16.80
2022-08-22T06:42:51.295Z,15.30
2022-08-22T06:45:25.521Z,12.40
2022-08-22T06:48:00.576Z,12.90
2022-08-22T06:50:33.486Z,12.93
2022-08-22T06:53:07.143Z,12.13
2022-08-22T06:55:37.717Z,13.88
2022-08-22T06:58:08.722Z,15.43
2022-08-22T07:00:39.704Z,14.00
2022-08-22T07:03:17.648Z,17.58
2022-08-22T07:05:46.100Z,15.55
2022-08-22T07:08:17.143Z,23.13
2022-08-22T07:10:50.749Z,12.85
2022-08-22T07:13:21.451Z,13.65
2022-08-22T07:15:58.068Z,13.18
2022-08-22T07:18:28.321Z,19.15
2022-08-22T07:20:59.289Z,11.93
2022-08-22T07:23:35.137Z,14.13
2022-08-22T07:26:18.572Z,20.83
2022-08-22T07:28:58.377Z,13.05
2022-08-22T07:31:38.429Z,15.20
2022-08-22T07:34:35.949Z,14.27
2022-08-22T07:37:10.854Z,15.38
2022-08-22T07:39:44.874Z,20.25
2022-08-22T07:42:18.416Z,17.20
2022-08-22T07:45:04.580Z,15.75
2022-08-22T07:47:49.719Z,16.15
2022-08-22T07:50:23.848Z,12.05
2022-08-22T07:52:56.383Z,13.73
2022-08-22T07:55:27.431Z,14.90
2022-08-22T07:58:02.103Z,18.45
2022-08-22T08:00:34.567Z,14.63
2022-08-22T08:03:08.889Z,16.05
2022-08-22T08:05:46.201Z,18.55
2022-08-22T08:08:21.283Z,13.38
2022-08-22T08:10:52.091Z,16.48
2022-08-22T08:13:26.422Z,15.13
2022-08-22T08:15:55.853Z,15.55
2022-08-22T08:18:29.607Z,17.17
2022-08-22T08:21:03.640Z,17.58
2022-08-22T08:23:39.637Z,18.20
2022-08-22T08:26:13.397Z,15.02
2022-08-22T08:28:48.132Z,17.38
2022-08-22T08:31:23.947Z,16.65
2022-08-22T08:34:05.230Z,18.85
2022-08-22T08:36:41.653Z,17.00
2022-08-22T08:39:22.493Z,13.48
2022-08-22T08:42:15.885Z,15.80
2022-08-22T08:45:15.458Z,19.50
2022-08-22T08:48:07.105Z,14.43
2022-08-22T08:50:57.815Z,13.75
2022-08-22T08:54:04.055Z,14.98
2022-08-22T08:56:39.608Z,16.50
2022-08-22T08:59:25.631Z,17.85
2022-08-22T09:02:13.741Z,19.15
2022-08-22T09:05:37.004Z,15.80
2022-08-22T09:08:31.112Z,18.42
2022-08-22T09:11:31.243Z,14.15
2022-08-22T09:14:16.565Z,14.00
2022-08-22T09:17:09.339Z,14.25
2022-08-22T09:20:17.730Z,16.35
2022-08-22T09:23:20.402Z,15.10
2022-08-22T09:25:56.235Z,15.18
2022-08-22T09:28:33.347Z,11.40
2022-08-22T09:34:29.708Z,14.00
2022-08-22T09:37:14.397Z,12.60
2022-08-22T09:39:52.268Z,14.32
2022-08-22T09:40:15.703Z,13.68
2022-08-22T09:42:30.842Z,13.20
2022-08-22T09:45:28.949Z,8.40
2022-08-22T09:48:07.010Z,9.35
2022-08-22T09:50:52.704Z,9.07
2022-08-22T09:53:55.911Z,7.45
2022-08-22T09:56:38.062Z,10.35
2022-08-22T09:59:15.259Z,10.48
2022-08-22T10:01:51.843Z,12.90
2022-08-22T10:04:47.625Z,12.02
2022-08-22T10:07:41.032Z,10.60
2022-08-22T10:10:28.882Z,12.23
2022-08-22T10:13:04.906Z,11.50
2022-08-22T10:15:47.996Z,9.35
2022-08-22T10:18:28.150Z,9.18
2022-08-22T10:21:07.069Z,10.70
2022-08-22T10:23:46.017Z,12.30
2022-08-22T10:26:25.679Z,11.13
2022-08-22T10:29:00.918Z,10.32
2022-08-22T10:31:51.047Z,12.57
2022-08-22T10:34:31.935Z,9.45
2022-08-22T10:37:14.245Z,14.38
2022-08-22T10:39:48.210Z,12.68
2022-08-22T10:42:28.182Z,9.95
2022-08-22T10:45:12.364Z,10.70
2022-08-22T10:48:22.603Z,7.53
2022-08-22T10:51:01.800Z,6.38
2022-08-22T10:53:38.801Z,6.93
2022-08-22T10:56:14.651Z,7.65
2022-08-22T10:58:49.737Z,6.97
2022-08-22T11:01:37.630Z,9.90
2022-08-22T11:04:28.241Z,9.65
2022-08-22T11:07:18.418Z,7.30
2022-08-22T11:09:59.473Z,7.80
2022-08-22T11:12:41.610Z,8.68
2022-08-22T11:15:24.207Z,5.90
2022-08-22T11:18:30.521Z,6.55
2022-08-22T11:21:07.344Z,6.10
2022-08-22T11:23:45.423Z,6.30
2022-08-22T11:26:35.776Z,8.85
2022-08-22T11:29:27.459Z,7.57
2022-08-22T11:32:07.748Z,8.35
2022-08-22T11:34:50.219Z,12.10
2022-08-22T11:37:56.525Z,11.00
2022-08-22T11:40:34.424Z,9.45
2022-08-22T11:43:18.971Z,8.75
2022-08-22T11:46:00.073Z,9.80
2022-08-22T11:48:39.008Z,8.60
2022-08-22T11:51:18.106Z,11.75
2022-08-22T11:54:04.534Z,9.52
2022-08-22T11:56:41.540Z,22.08
2022-08-22T11:59:22.536Z,11.73
2022-08-22T12:02:01.758Z,13.63
2022-08-22T12:04:35.564Z,9.48
2022-08-22T12:07:14.256Z,11.75
2022-08-22T12:09:58.732Z,7.68
2022-08-22T12:12:46.816Z,8.45
2022-08-22T12:15:22.458Z,8.98
2022-08-22T12:18:42.359Z,8.95
2022-08-22T12:21:46.944Z,10.63
2022-08-22T12:24:49.056Z,10.05
2022-08-22T12:27:48.091Z,9.40
2022-08-22T12:30:25.910Z,9.15
2022-08-22T12:33:39.879Z,6.80
2022-08-22T12:36:24.742Z,7.63
2022-08-22T12:39:24.443Z,7.07
2022-08-22T12:42:26.596Z,10.77
2022-08-22T12:45:12.114Z,14.77
2022-08-22T12:47:54.342Z,12.27
2022-08-22T12:50:36.424Z,7.97
2022-08-22T12:53:25.796Z,7.95
2022-08-22T12:56:06.449Z,7.05
2022-08-22T12:59:17.841Z,9.65
2022-08-22T13:01:51.205Z,6.40
2022-08-22T13:04:32.564Z,6.93
2022-08-22T13:07:22.721Z,8.48
2022-08-22T13:09:55.012Z,8.15
2022-08-22T13:12:28.261Z,7.50
2022-08-22T13:15:02.894Z,8.80
2022-08-22T13:17:33.873Z,6.65
2022-08-22T13:20:10.836Z,10.63
2022-08-22T13:22:45.546Z,9.60
2022-08-22T13:25:25.831Z,9.20
2022-08-22T13:27:59.121Z,11.20
2022-08-22T13:30:31.766Z,8.82
2022-08-22T13:33:10.336Z,7.65
2022-08-22T13:35:52.331Z,11.07
2022-08-22T13:38:46.571Z,11.30
2022-08-22T13:41:24.614Z,6.65
2022-08-22T13:44:22.703Z,7.50
2022-08-22T13:47:13.622Z,8.43
2022-08-22T13:49:45.291Z,5.47
2022-08-22T13:52:33.971Z,7.00
2022-08-22T13:55:15.219Z,7.40
2022-08-22T13:57:51.785Z,11.18
2022-08-22T14:00:59.600Z,5.75
2022-08-22T14:03:35.331Z,5.85
2022-08-22T14:06:36.930Z,6.03
2022-08-22T14:09:17.491Z,6.50
2022-08-22T14:12:12.293Z,5.38
2022-08-22T14:14:46.042Z,7.80
2022-08-22T14:17:18.564Z,5.90
2022-08-22T14:19:59.780Z,6.85
2022-08-22T14:22:41.552Z,6.85
2022-08-22T14:25:24.029Z,6.07
2022-08-22T14:28:00.994Z,5.75
2022-08-22T14:30:59.369Z,6.10
2022-08-22T14:33:34.732Z,5.90
2022-08-22T14:36:17.263Z,6.00
2022-08-22T14:39:25.956Z,5.82
2022-08-22T14:42:04.145Z,5.45
2022-08-22T14:44:41.234Z,6.38
2022-08-22T14:48:14.085Z,7.30
2022-08-22T14:50:45.644Z,5.53
2022-08-22T14:53:26.540Z,6.55
2022-08-22T14:56:18.115Z,8.23
2022-08-22T14:58:53.280Z,8.77
2022-08-22T15:01:25.023Z,7.63
2022-08-22T15:03:56.903Z,8.07
2022-08-22T15:06:36.336Z,6.65
2022-08-22T15:09:09.267Z,6.95
2022-08-22T15:11:42.155Z,5.90
2022-08-22T15:14:25.769Z,6.72
2022-08-22T15:17:05.532Z,7.65
2022-08-22T15:19:41.226Z,5.85
2022-08-22T15:22:15.001Z,8.70
2022-08-22T15:24:56.302Z,6.10
2022-08-22T15:27:27.742Z,7.63
2022-08-22T15:29:58.732Z,7.28
2022-08-22T15:32:30.329Z,11.50
2022-08-22T15:35:06.549Z,7.35
2022-08-22T15:37:53.970Z,6.22
2022-08-22T15:40:33.475Z,7.68
2022-08-22T15:43:14.994Z,8.45
2022-08-22T15:45:44.241Z,8.85
2022-08-22T15:48:27.764Z,8.68
2022-08-22T15:51:02.847Z,10.60
2022-08-22T15:53:34.182Z,9.65
2022-08-22T15:56:25.112Z,10.05
2022-08-22T15:59:53.589Z,8.52
2022-08-22T16:06:14.272Z,6.93
2022-08-22T16:08:50.583Z,6.97
2022-08-22T16:11:32.780Z,9.00
2022-08-22T16:14:24.441Z,7.50
2022-08-22T16:17:04.585Z,7.95
2022-08-22T16:19:34.415Z,9.52
2022-08-22T16:22:22.049Z,10.82
2022-08-22T16:25:17.491Z,10.52
2022-08-22T16:27:58.754Z,11.60
2022-08-22T16:30:41.051Z,8.35
2022-08-22T16:33:17.684Z,13.40
2022-08-22T16:36:24.469Z,8.35
2022-08-22T16:38:57.711Z,8.32
2022-08-22T16:41:31.560Z,6.22
2022-08-22T16:44:50.667Z,12.60
2022-08-22T16:47:23.068Z,5.93
2022-08-22T16:50:03.929Z,9.73
2022-08-22T16:52:53.935Z,7.60
2022-08-22T16:56:09.831Z,7.70
2022-08-22T16:59:06.058Z,8.40
2022-08-22T17:02:03.381Z,2.97
2022-08-22T17:04:45.435Z,5.35
2022-08-22T17:07:27.166Z,5.70
2022-08-22T17:10:21.785Z,7.45
2022-08-22T17:13:08.818Z,6.22
2022-08-22T17:15:48.267Z,8.25
2022-08-22T17:18:36.777Z,8.55
2022-08-22T17:21:13.253Z,2.95
2022-08-22T17:23:51.687Z,7.45
2022-08-22T17:26:26.457Z,4.00
2022-08-22T17:29:10.080Z,8.25
2022-08-22T17:31:50.156Z,4.07
2022-08-22T17:34:36.254Z,6.85
2022-08-22T17:37:12.066Z,4.82
2022-08-22T17:39:55.621Z,5.22
2022-08-22T17:42:53.357Z,4.15
2022-08-22T17:45:28.669Z,4.22
2022-08-22T17:48:04.000Z,5.90
2022-08-22T17:50:39.599Z,6.28
2022-08-22T17:53:16.479Z,10.05
2022-08-22T17:55:58.687Z,4.05
2022-08-22T17:58:43.510Z,5.70
2022-08-22T18:01:16.776Z,7.43
2022-08-22T18:04:01.121Z,4.03
2022-08-22T18:06:34.978Z,5.60
2022-08-22T18:09:14.394Z,4.60
2022-08-22T18:11:47.906Z,6.18
2022-08-22T18:14:30.113Z,8.00
2022-08-22T18:17:01.058Z,5.85
2022-08-22T18:19:43.505Z,5.50
2022-08-22T18:22:23.284Z,10.25
2022-08-22T18:24:55.735Z,8.35
2022-08-22T18:27:34.489Z,9.38
2022-08-22T18:30:20.476Z,6.80
2022-08-22T18:33:00.878Z,7.97
2022-08-22T18:35:36.629Z,6.07
2022-08-22T18:38:19.430Z,8.07
2022-08-22T18:40:55.674Z,7.25
2022-08-22T18:43:36.286Z,5.80
2022-08-22T18:46:28.572Z,7.40
2022-08-22T18:49:15.146Z,5.60
2022-08-22T18:52:16.674Z,5.95
2022-08-22T18:55:05.143Z,9.77
2022-08-22T18:58:00.833Z,10.07
2022-08-22T19:00:50.401Z,8.88
2022-08-22T19:03:44.639Z,7.03
2022-08-22T19:06:46.346Z,10.63
2022-08-22T19:09:43.311Z,8.73
2022-08-22T19:12:31.439Z,11.43
2022-08-22T19:15:21.463Z,5.55
2022-08-22T19:18:16.136Z,10.02
2022-08-22T19:21:23.969Z,9.50
2022-08-22T19:23:53.581Z,15.50
2022-08-22T19:26:38.834Z,6.10
2022-08-22T19:29:24.481Z,5.55
2022-08-22T19:31:54.792Z,7.93
2022-08-22T19:34:41.892Z,8.18
2022-08-22T19:37:32.795Z,8.65
2022-08-22T19:40:07.233Z,7.20
2022-08-22T19:42:41.705Z,6.57
2022-08-22T19:45:22.010Z,5.93
2022-08-22T19:48:02.202Z,10.60
2022-08-22T19:50:36.002Z,10.90
2022-08-22T19:53:35.984Z,5.90
2022-08-22T19:56:14.298Z,8.88
2022-08-22T19:58:56.104Z,8.40
2022-08-22T20:01:55.232Z,12.38
2022-08-22T20:04:43.195Z,9.30
2022-08-22T20:07:22.761Z,11.85
2022-08-22T20:10:00.647Z,8.93
2022-08-22T20:12:38.938Z,8.77
2022-08-22T20:15:22.263Z,8.02
2022-08-22T20:21:00.939Z,14.68
2022-08-22T20:23:32.286Z,7.30
2022-08-22T20:26:03.806Z,8.60
2022-08-22T20:28:45.405Z,10.77
2022-08-22T20:31:22.701Z,8.57
2022-08-22T20:33:58.986Z,10.05
2022-08-22T20:36:29.578Z,14.23
2022-08-22T20:39:03.050Z,9.98
2022-08-22T20:41:35.666Z,9.25
2022-08-22T20:44:13.597Z,7.20
2022-08-22T20:46:54.907Z,12.85
2022-08-22T20:49:30.296Z,8.35
2022-08-22T20:52:00.850Z,7.68
2022-08-22T20:54:31.437Z,11.65
2022-08-22T20:57:03.848Z,9.82
2022-08-22T20:59:37.129Z,7.75
2022-08-22T21:02:23.366Z,8.20
2022-08-22T21:05:00.275Z,9.25
2022-08-22T21:07:32.463Z,9.57
2022-08-22T21:10:35.609Z,6.63
2022-08-22T21:13:12.442Z,4.70
2022-08-22T21:15:45.991Z,9.60
2022-08-22T21:18:24.644Z,6.22
2022-08-22T21:20:53.367Z,10.20
2022-08-22T21:23:22.113Z,8.98
2022-08-22T21:25:58.958Z,13.82
2022-08-22T21:28:34.735Z,10.43
2022-08-22T21:31:12.323Z,10.10
2022-08-22T21:33:43.830Z,9.60
2022-08-22T21:36:23.474Z,8.10
2022-08-22T21:38:56.951Z,9.35
2022-08-22T21:41:28.166Z,13.15
2022-08-22T21:43:58.113Z,11.57
2022-08-22T21:46:29.886Z,11.70
2022-08-22T21:49:05.456Z,9.95
2022-08-22T21:51:42.413Z,11.07
2022-08-22T21:54:40.856Z,7.40
2022-08-22T21:57:20.037Z,6.93
2022-08-22T21:59:59.490Z,6.50
2022-08-22T22:02:36.813Z,8.52
2022-08-22T22:05:11.879Z,11.90
2022-08-22T22:07:53.719Z,7.13
2022-08-22T22:10:26.418Z,11.77
2022-08-22T22:13:06.351Z,7.03
2022-08-22T22:15:47.715Z,10.23
2022-08-22T22:18:18.658Z,6.53
2022-08-22T22:21:12.238Z,8.90
2022-08-22T22:23:42.197Z,8.38
2022-08-22T22:26:11.137Z,7.38
2022-08-22T22:28:42.242Z,6.93
2022-08-22T22:31:12.333Z,8.18
2022-08-22T22:33:44.112Z,8.00
2022-08-22T22:36:22.689Z,10.65
2022-08-22T22:38:52.846Z,8.02
2022-08-22T22:41:25.474Z,11.63
2022-08-22T22:43:58.141Z,10.35
2022-08-22T22:46:28.145Z,8.32
2022-08-22T22:48:57.994Z,8.60
2022-08-22T22:51:26.635Z,5.82
2022-08-22T22:53:57.202Z,11.88
2022-08-22T22:56:26.687Z,7.93
2022-08-22T22:59:00.597Z,8.35
2022-08-22T23:02:02.538Z,9.10
2022-08-22T23:04:31.914Z,12.00
2022-08-22T23:07:00.607Z,8.63
2022-08-22T23:09:38.496Z,11.63
2022-08-22T23:12:13.867Z,9.65
2022-08-22T23:14:42.608Z,15.40
2022-08-22T23:17:17.648Z,11.27
2022-08-22T23:19:47.637Z,6.22
2022-08-22T23:22:16.281Z,7.57
2022-08-22T23:24:44.659Z,9.10
2022-08-22T23:27:18.766Z,12.25
2022-08-22T23:29:50.529Z,8.88
2022-08-22T23:32:20.514Z,8.70
2022-08-22T23:34:49.754Z,8.43
2022-08-22T23:37:20.591Z,10.05
2022-08-22T23:39:49.739Z,15.65
2022-08-22T23:42:19.303Z,9.63
2022-08-22T23:44:48.461Z,8.50
2022-08-22T23:47:19.417Z,7.10
2022-08-22T23:50:26.640Z,9.23
2022-08-22T23:52:55.466Z,14.45
2022-08-22T23:55:23.842Z,12.77
2022-08-22T23:57:52.290Z,8.25
